sensor_id;sensor_type;location;lat;lon;timestamp;temperature;humidity
33574;DHT22;20085;50.832;4.392;2022-12-07T00:00:15;8.50;99.90
33574;DHT22;20085;50.832;4.392;2022-12-07T00:02:48;8.50;99.90
33574;DHT22;20085;50.832;4.392;2022-12-07T00:05:14;8.50;99.90
33574;DHT22;20085;50.832;4.392;2022-12-07T00:07:43;8.50;99.90
33574;DHT22;20085;50.832;4.392;2022-12-07T00:10:08;8.40;99.90
33574;DHT22;20085;50.832;4.392;2022-12-07T00:12:34;8.50;99.90
33574;DHT22;20085;50.832;4.392;2022-12-07T00:14:59;8.50;99.90
33574;DHT22;20085;50.832;4.392;2022-12-07T00:17:30;8.50;99.90
33574;DHT22;20085;50.832;4.392;2022-12-07T00:19:55;8.50;99.90
33574;DHT22;20085;50.832;4.392;2022-12-07T00:22:24;8.40;99.90
33574;DHT22;20085;50.832;4.392;2022-12-07T00:24:50;8.40;99.90
33574;DHT22;20085;50.832;4.392;2022-12-07T00:27:19;8.40;99.90
33574;DHT22;20085;50.832;4.392;2022-12-07T00:29:46;8.40;99.90
33574;DHT22;20085;50.832;4.392;2022-12-07T00:32:11;8.30;99.90
33574;DHT22;20085;50.832;4.392;2022-12-07T00:34:37;8.30;99.90
33574;DHT22;20085;50.832;4.392;2022-12-07T00:37:02;8.30;99.90
33574;DHT22;20085;50.832;4.392;2022-12-07T00:39:28;8.30;99.90
33574;DHT22;20085;50.832;4.392;2022-12-07T00:41:53;8.30;99.90
33574;DHT22;20085;50.832;4.392;2022-12-07T00:44:18;8.10;99.90
33574;DHT22;20085;50.832;4.392;2022-12-07T00:46:44;8.20;99.90
33574;DHT22;20085;50.832;4.392;2022-12-07T00:49:11;8.20;99.90
33574;DHT22;20085;50.832;4.392;2022-12-07T00:51:37;8.20;99.90
33574;DHT22;20085;50.832;4.392;2022-12-07T00:54:09;8.20;99.90
33574;DHT22;20085;50.832;4.392;2022-12-07T00:56:34;8.20;99.90
33574;DHT22;20085;50.832;4.392;2022-12-07T00:59:06;8.20;99.90
33574;DHT22;20085;50.832;4.392;2022-12-07T01:01:39;8.20;99.90
33574;DHT22;20085;50.832;4.392;2022-12-07T01:04:05;8.30;99.90
33574;DHT22;20085;50.832;4.392;2022-12-07T01:06:39;8.20;99.90
33574;DHT22;20085;50.832;4.392;2022-12-07T01:09:07;8.20;99.90
33574;DHT22;20085;50.832;4.392;2022-12-07T01:14:27;8.10;99.90
33574;DHT22;20085;50.832;4.392;2022-12-07T01:16:52;8.10;99.90
33574;DHT22;20085;50.832;4.392;2022-12-07T01:19:18;8.20;99.90
33574;DHT22;20085;50.832;4.392;2022-12-07T01:21:43;8.20;99.90
33574;DHT22;20085;50.832;4.392;2022-12-07T01:24:09;8.20;99.90
33574;DHT22;20085;50.832;4.392;2022-12-07T01:26:35;8.00;99.90
33574;DHT22;20085;50.832;4.392;2022-12-07T01:29:01;8.00;99.90
33574;DHT22;20085;50.832;4.392;2022-12-07T01:31:27;8.00;99.90
33574;DHT22;20085;50.832;4.392;2022-12-07T01:33:54;8.00;99.90
33574;DHT22;20085;50.832;4.392;2022-12-07T01:36:24;8.10;99.90
33574;DHT22;20085;50.832;4.392;2022-12-07T01:38:50;8.10;99.90
33574;DHT22;20085;50.832;4.392;2022-12-07T01:41:17;8.10;99.90
33574;DHT22;20085;50.832;4.392;2022-12-07T01:46:27;8.20;99.90
33574;DHT22;20085;50.832;4.392;2022-12-07T01:48:53;8.10;99.90
33574;DHT22;20085;50.832;4.392;2022-12-07T01:51:18;8.10;99.90
33574;DHT22;20085;50.832;4.392;2022-12-07T01:53:44;8.00;99.90
33574;DHT22;20085;50.832;4.392;2022-12-07T01:56:11;7.90;99.90
33574;DHT22;20085;50.832;4.392;2022-12-07T01:58:38;8.00;99.90
33574;DHT22;20085;50.832;4.392;2022-12-07T02:01:04;8.00;99.90
33574;DHT22;20085;50.832;4.392;2022-12-07T02:03:37;8.00;99.90
33574;DHT22;20085;50.832;4.392;2022-12-07T02:06:04;7.90;99.90
33574;DHT22;20085;50.832;4.392;2022-12-07T02:08:29;7.90;99.90
33574;DHT22;20085;50.832;4.392;2022-12-07T02:10:55;7.90;99.90
33574;DHT22;20085;50.832;4.392;2022-12-07T02:13:24;8.00;99.90
33574;DHT22;20085;50.832;4.392;2022-12-07T02:18:16;8.10;99.90
33574;DHT22;20085;50.832;4.392;2022-12-07T02:20:48;8.20;99.90
33574;DHT22;20085;50.832;4.392;2022-12-07T02:25:54;8.10;99.90
33574;DHT22;20085;50.832;4.392;2022-12-07T02:28:34;8.10;99.90
33574;DHT22;20085;50.832;4.392;2022-12-07T02:31:19;8.10;99.90
33574;DHT22;20085;50.832;4.392;2022-12-07T02:33:52;8.20;99.90
33574;DHT22;20085;50.832;4.392;2022-12-07T02:36:21;8.10;99.90
33574;DHT22;20085;50.832;4.392;2022-12-07T02:38:55;8.10;99.90
33574;DHT22;20085;50.832;4.392;2022-12-07T02:41:37;8.10;99.90
33574;DHT22;20085;50.832;4.392;2022-12-07T02:44:07;8.00;99.90
33574;DHT22;20085;50.832;4.392;2022-12-07T02:46:36;7.90;99.90
33574;DHT22;20085;50.832;4.392;2022-12-07T02:49:02;8.00;99.90
33574;DHT22;20085;50.832;4.392;2022-12-07T02:51:31;8.00;99.90
33574;DHT22;20085;50.832;4.392;2022-12-07T02:53:58;8.00;99.90
33574;DHT22;20085;50.832;4.392;2022-12-07T03:02:13;7.90;99.90
33574;DHT22;20085;50.832;4.392;2022-12-07T03:04:45;7.90;99.90
33574;DHT22;20085;50.832;4.392;2022-12-07T03:07:18;7.90;99.90
33574;DHT22;20085;50.832;4.392;2022-12-07T03:12:26;7.80;99.90
33574;DHT22;20085;50.832;4.392;2022-12-07T03:15:02;7.70;99.90
33574;DHT22;20085;50.832;4.392;2022-12-07T03:17:30;7.50;99.90
33574;DHT22;20085;50.832;4.392;2022-12-07T03:19:58;7.50;99.90
33574;DHT22;20085;50.832;4.392;2022-12-07T03:22:23;7.60;99.90
33574;DHT22;20085;50.832;4.392;2022-12-07T03:24:53;7.70;99.90
33574;DHT22;20085;50.832;4.392;2022-12-07T03:27:21;7.80;99.90
33574;DHT22;20085;50.832;4.392;2022-12-07T03:29:50;7.90;99.90
33574;DHT22;20085;50.832;4.392;2022-12-07T03:32:20;8.00;99.90
33574;DHT22;20085;50.832;4.392;2022-12-07T03:37:37;8.00;99.90
33574;DHT22;20085;50.832;4.392;2022-12-07T03:40:06;8.00;99.90
33574;DHT22;20085;50.832;4.392;2022-12-07T03:42:32;8.00;99.90
33574;DHT22;20085;50.832;4.392;2022-12-07T03:44:58;8.00;99.90
33574;DHT22;20085;50.832;4.392;2022-12-07T03:47:34;8.10;99.90
33574;DHT22;20085;50.832;4.392;2022-12-07T03:53:22;8.10;99.90
33574;DHT22;20085;50.832;4.392;2022-12-07T03:55:41;8.10;99.90
33574;DHT22;20085;50.832;4.392;2022-12-07T03:58:09;8.00;99.90
33574;DHT22;20085;50.832;4.392;2022-12-07T04:00:35;7.90;99.90
33574;DHT22;20085;50.832;4.392;2022-12-07T04:03:01;7.90;99.90
33574;DHT22;20085;50.832;4.392;2022-12-07T04:05:26;7.90;99.90
33574;DHT22;20085;50.832;4.392;2022-12-07T04:07:52;7.80;99.90
33574;DHT22;20085;50.832;4.392;2022-12-07T04:10:18;7.80;99.90
33574;DHT22;20085;50.832;4.392;2022-12-07T04:12:45;7.80;99.90
33574;DHT22;20085;50.832;4.392;2022-12-07T04:15:11;7.80;99.90
33574;DHT22;20085;50.832;4.392;2022-12-07T04:17:36;7.80;99.90
33574;DHT22;20085;50.832;4.392;2022-12-07T04:20:02;7.80;99.90
33574;DHT22;20085;50.832;4.392;2022-12-07T04:22:29;7.70;99.90
33574;DHT22;20085;50.832;4.392;2022-12-07T04:24:54;7.70;99.90
33574;DHT22;20085;50.832;4.392;2022-12-07T04:27:20;7.60;99.90
33574;DHT22;20085;50.832;4.392;2022-12-07T04:29:45;7.50;99.90
33574;DHT22;20085;50.832;4.392;2022-12-07T04:32:11;7.50;99.90
33574;DHT22;20085;50.832;4.392;2022-12-07T04:34:36;7.50;99.90
33574;DHT22;20085;50.832;4.392;2022-12-07T04:37:02;7.50;99.90
33574;DHT22;20085;50.832;4.392;2022-12-07T04:39:28;7.50;99.90
33574;DHT22;20085;50.832;4.392;2022-12-07T04:41:54;7.40;99.90
33574;DHT22;20085;50.832;4.392;2022-12-07T04:44:20;7.40;99.90
33574;DHT22;20085;50.832;4.392;2022-12-07T04:46:46;7.50;99.90
33574;DHT22;20085;50.832;4.392;2022-12-07T04:49:12;7.50;99.90
33574;DHT22;20085;50.832;4.392;2022-12-07T04:51:38;7.50;99.90
33574;DHT22;20085;50.832;4.392;2022-12-07T04:54:04;7.50;99.90
33574;DHT22;20085;50.832;4.392;2022-12-07T04:56:29;7.50;99.90
33574;DHT22;20085;50.832;4.392;2022-12-07T04:58:55;7.50;99.90
33574;DHT22;20085;50.832;4.392;2022-12-07T05:01:21;7.60;99.90
33574;DHT22;20085;50.832;4.392;2022-12-07T05:03:46;7.60;99.90
33574;DHT22;20085;50.832;4.392;2022-12-07T05:06:12;7.70;99.90
33574;DHT22;20085;50.832;4.392;2022-12-07T05:08:38;7.70;99.90
33574;DHT22;20085;50.832;4.392;2022-12-07T05:11:04;7.80;99.90
33574;DHT22;20085;50.832;4.392;2022-12-07T05:13:30;7.70;99.90
33574;DHT22;20085;50.832;4.392;2022-12-07T05:15:55;7.70;99.90
33574;DHT22;20085;50.832;4.392;2022-12-07T05:18:21;7.50;99.90
33574;DHT22;20085;50.832;4.392;2022-12-07T05:20:46;7.60;99.90
33574;DHT22;20085;50.832;4.392;2022-12-07T05:23:12;7.60;99.90
33574;DHT22;20085;50.832;4.392;2022-12-07T05:25:37;7.50;99.90
33574;DHT22;20085;50.832;4.392;2022-12-07T05:28:03;7.50;99.90
33574;DHT22;20085;50.832;4.392;2022-12-07T05:30:29;7.50;99.90
33574;DHT22;20085;50.832;4.392;2022-12-07T05:32:55;7.40;99.90
33574;DHT22;20085;50.832;4.392;2022-12-07T05:35:20;7.40;99.90
33574;DHT22;20085;50.832;4.392;2022-12-07T05:37:46;7.50;99.90
33574;DHT22;20085;50.832;4.392;2022-12-07T05:40:11;7.70;99.90
33574;DHT22;20085;50.832;4.392;2022-12-07T05:42:37;7.70;99.90
33574;DHT22;20085;50.832;4.392;2022-12-07T05:45:03;7.70;99.90
33574;DHT22;20085;50.832;4.392;2022-12-07T05:47:29;7.80;99.90
33574;DHT22;20085;50.832;4.392;2022-12-07T05:49:54;7.70;99.90
33574;DHT22;20085;50.832;4.392;2022-12-07T05:52:20;7.80;99.90
33574;DHT22;20085;50.832;4.392;2022-12-07T05:54:45;7.70;99.90
33574;DHT22;20085;50.832;4.392;2022-12-07T05:57:11;7.80;99.90
33574;DHT22;20085;50.832;4.392;2022-12-07T05:59:36;7.70;99.90
33574;DHT22;20085;50.832;4.392;2022-12-07T06:04:29;7.70;99.90
33574;DHT22;20085;50.832;4.392;2022-12-07T06:06:54;7.60;99.90
33574;DHT22;20085;50.832;4.392;2022-12-07T06:09:21;7.70;99.90
33574;DHT22;20085;50.832;4.392;2022-12-07T06:11:47;7.80;99.90
33574;DHT22;20085;50.832;4.392;2022-12-07T06:14:33;7.70;99.90
33574;DHT22;20085;50.832;4.392;2022-12-07T06:17:02;7.60;99.90
33574;DHT22;20085;50.832;4.392;2022-12-07T06:19:28;7.60;99.90
33574;DHT22;20085;50.832;4.392;2022-12-07T06:21:53;7.50;99.90
33574;DHT22;20085;50.832;4.392;2022-12-07T06:24:19;7.50;99.90
33574;DHT22;20085;50.832;4.392;2022-12-07T06:26:44;7.50;99.90
33574;DHT22;20085;50.832;4.392;2022-12-07T06:29:11;7.50;99.90
33574;DHT22;20085;50.832;4.392;2022-12-07T06:31:36;7.50;99.90
33574;DHT22;20085;50.832;4.392;2022-12-07T06:34:03;7.60;99.90
33574;DHT22;20085;50.832;4.392;2022-12-07T06:36:29;7.60;99.90
33574;DHT22;20085;50.832;4.392;2022-12-07T06:38:55;7.70;99.90
33574;DHT22;20085;50.832;4.392;2022-12-07T06:41:42;7.70;99.90
33574;DHT22;20085;50.832;4.392;2022-12-07T06:44:07;7.80;99.90
33574;DHT22;20085;50.832;4.392;2022-12-07T06:46:32;7.70;99.90
33574;DHT22;20085;50.832;4.392;2022-12-07T06:48:58;7.70;99.90
33574;DHT22;20085;50.832;4.392;2022-12-07T06:51:23;7.60;99.90
33574;DHT22;20085;50.832;4.392;2022-12-07T06:53:49;7.70;99.90
33574;DHT22;20085;50.832;4.392;2022-12-07T06:56:15;7.70;99.90
33574;DHT22;20085;50.832;4.392;2022-12-07T06:58:40;7.80;99.90
33574;DHT22;20085;50.832;4.392;2022-12-07T07:01:13;7.80;99.90
33574;DHT22;20085;50.832;4.392;2022-12-07T07:03:39;7.80;99.90
33574;DHT22;20085;50.832;4.392;2022-12-07T07:06:04;7.80;99.90
33574;DHT22;20085;50.832;4.392;2022-12-07T07:08:30;7.70;99.90
33574;DHT22;20085;50.832;4.392;2022-12-07T07:10:56;7.70;99.90
33574;DHT22;20085;50.832;4.392;2022-12-07T07:13:22;7.70;99.90
33574;DHT22;20085;50.832;4.392;2022-12-07T07:15:47;7.80;99.90
33574;DHT22;20085;50.832;4.392;2022-12-07T07:18:13;7.90;99.90
33574;DHT22;20085;50.832;4.392;2022-12-07T07:20:38;7.80;99.90
33574;DHT22;20085;50.832;4.392;2022-12-07T07:23:04;7.80;99.90
33574;DHT22;20085;50.832;4.392;2022-12-07T07:25:29;7.80;99.90
33574;DHT22;20085;50.832;4.392;2022-12-07T07:27:55;7.80;99.90
33574;DHT22;20085;50.832;4.392;2022-12-07T07:30:20;7.80;99.90
33574;DHT22;20085;50.832;4.392;2022-12-07T07:32:46;7.80;99.90
33574;DHT22;20085;50.832;4.392;2022-12-07T07:35:14;7.80;99.90
33574;DHT22;20085;50.832;4.392;2022-12-07T07:37:40;7.60;99.90
33574;DHT22;20085;50.832;4.392;2022-12-07T07:40:06;7.70;99.90
33574;DHT22;20085;50.832;4.392;2022-12-07T07:42:32;7.70;99.90
33574;DHT22;20085;50.832;4.392;2022-12-07T07:44:57;7.80;99.90
33574;DHT22;20085;50.832;4.392;2022-12-07T07:47:23;7.80;99.90
33574;DHT22;20085;50.832;4.392;2022-12-07T07:49:48;7.90;99.90
33574;DHT22;20085;50.832;4.392;2022-12-07T07:52:14;7.80;99.90
33574;DHT22;20085;50.832;4.392;2022-12-07T07:54:39;7.90;99.90
33574;DHT22;20085;50.832;4.392;2022-12-07T07:57:05;7.70;99.90
33574;DHT22;20085;50.832;4.392;2022-12-07T07:59:30;7.80;99.90
33574;DHT22;20085;50.832;4.392;2022-12-07T08:01:56;7.80;99.90
33574;DHT22;20085;50.832;4.392;2022-12-07T08:04:21;7.70;99.90
33574;DHT22;20085;50.832;4.392;2022-12-07T08:06:47;7.70;99.90
33574;DHT22;20085;50.832;4.392;2022-12-07T08:09:13;7.80;99.90
33574;DHT22;20085;50.832;4.392;2022-12-07T08:11:40;7.80;99.90
33574;DHT22;20085;50.832;4.392;2022-12-07T08:14:09;7.70;99.90
33574;DHT22;20085;50.832;4.392;2022-12-07T08:16:35;7.70;99.90
33574;DHT22;20085;50.832;4.392;2022-12-07T08:19:00;7.80;99.90
33574;DHT22;20085;50.832;4.392;2022-12-07T08:21:26;7.80;99.90
33574;DHT22;20085;50.832;4.392;2022-12-07T08:23:51;7.80;99.90
33574;DHT22;20085;50.832;4.392;2022-12-07T08:26:17;7.80;99.90
33574;DHT22;20085;50.832;4.392;2022-12-07T08:28:43;7.80;99.90
33574;DHT22;20085;50.832;4.392;2022-12-07T08:31:12;7.80;99.90
33574;DHT22;20085;50.832;4.392;2022-12-07T08:33:38;7.80;99.90
33574;DHT22;20085;50.832;4.392;2022-12-07T08:36:04;7.80;99.90
33574;DHT22;20085;50.832;4.392;2022-12-07T08:38:30;7.80;99.90
33574;DHT22;20085;50.832;4.392;2022-12-07T08:40:56;7.80;99.90
33574;DHT22;20085;50.832;4.392;2022-12-07T08:43:22;7.80;99.90
33574;DHT22;20085;50.832;4.392;2022-12-07T08:45:48;7.70;99.90
33574;DHT22;20085;50.832;4.392;2022-12-07T08:48:16;7.70;99.90
33574;DHT22;20085;50.832;4.392;2022-12-07T08:50:47;7.70;99.90
33574;DHT22;20085;50.832;4.392;2022-12-07T08:53:13;7.80;99.90
33574;DHT22;20085;50.832;4.392;2022-12-07T08:55:39;7.80;99.90
33574;DHT22;20085;50.832;4.392;2022-12-07T08:58:04;7.80;99.90
33574;DHT22;20085;50.832;4.392;2022-12-07T09:00:30;7.80;99.90
33574;DHT22;20085;50.832;4.392;2022-12-07T09:02:55;7.90;99.90
33574;DHT22;20085;50.832;4.392;2022-12-07T09:05:21;7.90;99.90
33574;DHT22;20085;50.832;4.392;2022-12-07T09:07:48;7.90;99.90
33574;DHT22;20085;50.832;4.392;2022-12-07T09:10:15;8.00;99.90
33574;DHT22;20085;50.832;4.392;2022-12-07T09:12:40;8.00;99.90
33574;DHT22;20085;50.832;4.392;2022-12-07T09:15:06;8.00;99.90
33574;DHT22;20085;50.832;4.392;2022-12-07T09:17:32;8.00;99.90
33574;DHT22;20085;50.832;4.392;2022-12-07T09:19:58;7.90;99.90
33574;DHT22;20085;50.832;4.392;2022-12-07T09:22:24;8.00;99.90
33574;DHT22;20085;50.832;4.392;2022-12-07T09:24:49;8.00;99.90
33574;DHT22;20085;50.832;4.392;2022-12-07T09:27:15;8.10;99.90
33574;DHT22;20085;50.832;4.392;2022-12-07T09:29:42;8.10;99.90
33574;DHT22;20085;50.832;4.392;2022-12-07T09:32:08;8.30;99.90
33574;DHT22;20085;50.832;4.392;2022-12-07T09:34:33;8.30;99.90
33574;DHT22;20085;50.832;4.392;2022-12-07T09:37:00;8.30;99.90
33574;DHT22;20085;50.832;4.392;2022-12-07T09:39:26;8.20;99.90
33574;DHT22;20085;50.832;4.392;2022-12-07T09:41:54;8.20;99.90
33574;DHT22;20085;50.832;4.392;2022-12-07T09:44:22;8.20;99.90
33574;DHT22;20085;50.832;4.392;2022-12-07T09:46:48;8.30;99.90
33574;DHT22;20085;50.832;4.392;2022-12-07T09:49:19;8.40;99.90
33574;DHT22;20085;50.832;4.392;2022-12-07T09:51:45;8.40;99.90
33574;DHT22;20085;50.832;4.392;2022-12-07T09:54:12;8.50;99.90
33574;DHT22;20085;50.832;4.392;2022-12-07T09:56:38;8.50;99.90
33574;DHT22;20085;50.832;4.392;2022-12-07T09:59:03;8.50;99.90
33574;DHT22;20085;50.832;4.392;2022-12-07T10:01:32;8.60;99.90
33574;DHT22;20085;50.832;4.392;2022-12-07T10:04:21;8.60;99.90
33574;DHT22;20085;50.832;4.392;2022-12-07T10:06:46;8.60;99.90
33574;DHT22;20085;50.832;4.392;2022-12-07T10:09:13;8.60;99.90
33574;DHT22;20085;50.832;4.392;2022-12-07T10:14:24;8.50;99.90
33574;DHT22;20085;50.832;4.392;2022-12-07T10:16:52;8.50;99.90
33574;DHT22;20085;50.832;4.392;2022-12-07T10:19:19;8.40;99.90
33574;DHT22;20085;50.832;4.392;2022-12-07T10:22:27;8.30;99.90
33574;DHT22;20085;50.832;4.392;2022-12-07T10:24:33;8.20;99.90
33574;DHT22;20085;50.832;4.392;2022-12-07T10:26:59;8.10;99.90
33574;DHT22;20085;50.832;4.392;2022-12-07T10:29:29;8.20;99.90
33574;DHT22;20085;50.832;4.392;2022-12-07T10:32:01;8.20;99.90
33574;DHT22;20085;50.832;4.392;2022-12-07T10:34:28;8.20;99.90
33574;DHT22;20085;50.832;4.392;2022-12-07T10:37:06;8.20;99.90
33574;DHT22;20085;50.832;4.392;2022-12-07T10:39:32;8.30;99.90
33574;DHT22;20085;50.832;4.392;2022-12-07T10:42:05;8.20;99.90
33574;DHT22;20085;50.832;4.392;2022-12-07T10:44:32;8.30;99.90
33574;DHT22;20085;50.832;4.392;2022-12-07T10:49:49;8.50;99.90
33574;DHT22;20085;50.832;4.392;2022-12-07T10:52:31;8.40;99.90
33574;DHT22;20085;50.832;4.392;2022-12-07T11:05:28;8.60;99.90
33574;DHT22;20085;50.832;4.392;2022-12-07T11:10:22;8.60;99.90
33574;DHT22;20085;50.832;4.392;2022-12-07T11:18:09;8.70;99.90
33574;DHT22;20085;50.832;4.392;2022-12-07T11:23:14;8.60;99.90
33574;DHT22;20085;50.832;4.392;2022-12-07T11:33:27;8.60;99.90
33574;DHT22;20085;50.832;4.392;2022-12-07T11:35:56;8.50;99.90
33574;DHT22;20085;50.832;4.392;2022-12-07T11:38:33;8.50;99.90
33574;DHT22;20085;50.832;4.392;2022-12-07T11:41:02;8.50;99.90
33574;DHT22;20085;50.832;4.392;2022-12-07T11:43:41;8.50;99.90
33574;DHT22;20085;50.832;4.392;2022-12-07T11:46:12;8.30;99.90
33574;DHT22;20085;50.832;4.392;2022-12-07T11:51:20;8.50;99.90
33574;DHT22;20085;50.832;4.392;2022-12-07T11:53:48;8.50;99.90
33574;DHT22;20085;50.832;4.392;2022-12-07T11:56:20;8.50;99.90
33574;DHT22;20085;50.832;4.392;2022-12-07T11:58:48;8.40;99.90
33574;DHT22;20085;50.832;4.392;2022-12-07T12:03:49;8.50;99.90
33574;DHT22;20085;50.832;4.392;2022-12-07T12:06:14;8.70;99.90
33574;DHT22;20085;50.832;4.392;2022-12-07T12:08:45;8.70;99.90
33574;DHT22;20085;50.832;4.392;2022-12-07T12:19:05;8.80;99.90
33574;DHT22;20085;50.832;4.392;2022-12-07T12:21:33;8.80;99.90
33574;DHT22;20085;50.832;4.392;2022-12-07T12:24:00;8.80;99.90
33574;DHT22;20085;50.832;4.392;2022-12-07T12:26:32;8.80;99.90
33574;DHT22;20085;50.832;4.392;2022-12-07T12:28:59;8.90;99.90
33574;DHT22;20085;50.832;4.392;2022-12-07T12:31:34;8.90;99.90
33574;DHT22;20085;50.832;4.392;2022-12-07T12:34:03;8.90;99.90
33574;DHT22;20085;50.832;4.392;2022-12-07T12:51:53;8.80;99.90
33574;DHT22;20085;50.832;4.392;2022-12-07T12:59:26;8.80;99.90
33574;DHT22;20085;50.832;4.392;2022-12-07T13:01:54;8.80;99.90
33574;DHT22;20085;50.832;4.392;2022-12-07T13:04:22;8.80;99.90
33574;DHT22;20085;50.832;4.392;2022-12-07T13:06:49;8.80;99.90
33574;DHT22;20085;50.832;4.392;2022-12-07T13:09:20;8.90;99.90
33574;DHT22;20085;50.832;4.392;2022-12-07T13:11:47;8.90;99.90
33574;DHT22;20085;50.832;4.392;2022-12-07T13:16:57;9.10;99.90
33574;DHT22;20085;50.832;4.392;2022-12-07T13:24:54;9.20;99.90
33574;DHT22;20085;50.832;4.392;2022-12-07T13:27:21;9.20;99.90
33574;DHT22;20085;50.832;4.392;2022-12-07T13:29:46;9.30;99.90
33574;DHT22;20085;50.832;4.392;2022-12-07T13:32:25;9.40;99.90
33574;DHT22;20085;50.832;4.392;2022-12-07T13:34:51;9.30;99.90
33574;DHT22;20085;50.832;4.392;2022-12-07T13:39:46;9.20;99.90
33574;DHT22;20085;50.832;4.392;2022-12-07T13:44:44;9.00;99.90
33574;DHT22;20085;50.832;4.392;2022-12-07T13:47:17;9.10;99.90
33574;DHT22;20085;50.832;4.392;2022-12-07T13:49:51;9.10;99.90
33574;DHT22;20085;50.832;4.392;2022-12-07T13:52:27;9.10;99.90
33574;DHT22;20085;50.832;4.392;2022-12-07T13:55:00;9.10;99.90
33574;DHT22;20085;50.832;4.392;2022-12-07T13:57:27;9.20;99.90
33574;DHT22;20085;50.832;4.392;2022-12-07T13:59:53;9.30;99.90
33574;DHT22;20085;50.832;4.392;2022-12-07T14:04:50;9.30;99.90
33574;DHT22;20085;50.832;4.392;2022-12-07T14:07:26;9.20;99.90
33574;DHT22;20085;50.832;4.392;2022-12-07T14:09:53;9.10;99.90
33574;DHT22;20085;50.832;4.392;2022-12-07T14:12:19;9.00;99.90
33574;DHT22;20085;50.832;4.392;2022-12-07T14:14:46;8.90;99.90
33574;DHT22;20085;50.832;4.392;2022-12-07T14:17:17;8.90;99.90
33574;DHT22;20085;50.832;4.392;2022-12-07T14:19:47;8.80;99.90
33574;DHT22;20085;50.832;4.392;2022-12-07T14:24:48;8.70;99.90
33574;DHT22;20085;50.832;4.392;2022-12-07T14:27:17;8.60;99.90
33574;DHT22;20085;50.832;4.392;2022-12-07T14:29:43;8.70;99.90
33574;DHT22;20085;50.832;4.392;2022-12-07T14:32:19;8.70;99.90
33574;DHT22;20085;50.832;4.392;2022-12-07T14:34:55;8.80;99.90
33574;DHT22;20085;50.832;4.392;2022-12-07T14:37:20;8.70;99.90
33574;DHT22;20085;50.832;4.392;2022-12-07T14:39:46;8.70;99.90
33574;DHT22;20085;50.832;4.392;2022-12-07T14:42:11;8.60;99.90
33574;DHT22;20085;50.832;4.392;2022-12-07T14:44:37;8.60;99.90
33574;DHT22;20085;50.832;4.392;2022-12-07T14:47:02;8.60;99.90
33574;DHT22;20085;50.832;4.392;2022-12-07T14:49:28;8.60;99.90
33574;DHT22;20085;50.832;4.392;2022-12-07T14:51:53;8.70;99.90
33574;DHT22;20085;50.832;4.392;2022-12-07T14:54:20;8.60;99.90
33574;DHT22;20085;50.832;4.392;2022-12-07T14:56:45;8.70;99.90
33574;DHT22;20085;50.832;4.392;2022-12-07T14:59:14;8.70;99.90
33574;DHT22;20085;50.832;4.392;2022-12-07T15:01:39;8.60;99.90
33574;DHT22;20085;50.832;4.392;2022-12-07T15:04:05;8.70;99.90
33574;DHT22;20085;50.832;4.392;2022-12-07T15:06:31;8.70;99.90
33574;DHT22;20085;50.832;4.392;2022-12-07T15:08:56;8.70;99.90
33574;DHT22;20085;50.832;4.392;2022-12-07T15:11:22;8.70;99.90
33574;DHT22;20085;50.832;4.392;2022-12-07T15:13:47;8.70;99.90
33574;DHT22;20085;50.832;4.392;2022-12-07T15:16:31;8.60;99.90
33574;DHT22;20085;50.832;4.392;2022-12-07T15:18:57;8.70;99.90
33574;DHT22;20085;50.832;4.392;2022-12-07T15:21:22;8.60;99.90
33574;DHT22;20085;50.832;4.392;2022-12-07T15:23:48;8.50;99.90
33574;DHT22;20085;50.832;4.392;2022-12-07T15:26:13;8.50;99.90
33574;DHT22;20085;50.832;4.392;2022-12-07T15:28:39;8.50;99.90
33574;DHT22;20085;50.832;4.392;2022-12-07T15:31:11;8.60;99.90
33574;DHT22;20085;50.832;4.392;2022-12-07T15:33:37;8.60;99.90
33574;DHT22;20085;50.832;4.392;2022-12-07T15:36:02;8.60;99.90
33574;DHT22;20085;50.832;4.392;2022-12-07T15:38:28;8.70;99.90
33574;DHT22;20085;50.832;4.392;2022-12-07T15:40:55;8.70;99.90
33574;DHT22;20085;50.832;4.392;2022-12-07T15:43:20;8.70;99.90
33574;DHT22;20085;50.832;4.392;2022-12-07T15:46:05;8.60;99.90
33574;DHT22;20085;50.832;4.392;2022-12-07T15:48:30;8.60;99.90
33574;DHT22;20085;50.832;4.392;2022-12-07T15:51:05;8.50;99.90
33574;DHT22;20085;50.832;4.392;2022-12-07T15:53:30;8.50;99.90
33574;DHT22;20085;50.832;4.392;2022-12-07T15:55:56;8.50;99.90
33574;DHT22;20085;50.832;4.392;2022-12-07T15:58:21;8.50;99.90
33574;DHT22;20085;50.832;4.392;2022-12-07T16:00:47;8.50;99.90
33574;DHT22;20085;50.832;4.392;2022-12-07T16:03:13;8.60;99.90
33574;DHT22;20085;50.832;4.392;2022-12-07T16:05:39;8.60;99.90
33574;DHT22;20085;50.832;4.392;2022-12-07T16:08:04;8.50;99.90
33574;DHT22;20085;50.832;4.392;2022-12-07T16:10:30;8.60;99.90
33574;DHT22;20085;50.832;4.392;2022-12-07T16:12:55;8.70;99.90
33574;DHT22;20085;50.832;4.392;2022-12-07T16:15:21;8.70;99.90
33574;DHT22;20085;50.832;4.392;2022-12-07T16:17:46;8.70;99.90
33574;DHT22;20085;50.832;4.392;2022-12-07T16:20:12;8.80;99.90
33574;DHT22;20085;50.832;4.392;2022-12-07T16:22:37;8.80;99.90
33574;DHT22;20085;50.832;4.392;2022-12-07T16:25:03;8.70;99.90
33574;DHT22;20085;50.832;4.392;2022-12-07T16:27:28;8.80;99.90
33574;DHT22;20085;50.832;4.392;2022-12-07T16:29:54;8.80;99.90
33574;DHT22;20085;50.832;4.392;2022-12-07T16:32:19;8.80;99.90
33574;DHT22;20085;50.832;4.392;2022-12-07T16:34:45;8.70;99.90
33574;DHT22;20085;50.832;4.392;2022-12-07T16:37:10;8.80;99.90
33574;DHT22;20085;50.832;4.392;2022-12-07T16:39:36;8.80;99.90
33574;DHT22;20085;50.832;4.392;2022-12-07T16:42:01;8.80;99.90
33574;DHT22;20085;50.832;4.392;2022-12-07T16:44:27;8.70;99.90
33574;DHT22;20085;50.832;4.392;2022-12-07T16:46:53;8.70;99.90
33574;DHT22;20085;50.832;4.392;2022-12-07T16:49:19;8.80;99.90
33574;DHT22;20085;50.832;4.392;2022-12-07T16:51:44;8.70;99.90
33574;DHT22;20085;50.832;4.392;2022-12-07T16:54:11;8.70;99.90
33574;DHT22;20085;50.832;4.392;2022-12-07T16:56:37;8.60;99.90
33574;DHT22;20085;50.832;4.392;2022-12-07T16:59:03;8.60;99.90
33574;DHT22;20085;50.832;4.392;2022-12-07T17:01:28;8.60;99.90
33574;DHT22;20085;50.832;4.392;2022-12-07T17:03:54;8.50;99.90
33574;DHT22;20085;50.832;4.392;2022-12-07T17:06:24;8.40;99.90
33574;DHT22;20085;50.832;4.392;2022-12-07T17:08:50;8.40;99.90
33574;DHT22;20085;50.832;4.392;2022-12-07T17:11:26;8.50;99.90
33574;DHT22;20085;50.832;4.392;2022-12-07T17:13:52;8.50;99.90
33574;DHT22;20085;50.832;4.392;2022-12-07T17:16:36;8.40;99.90
33574;DHT22;20085;50.832;4.392;2022-12-07T17:19:05;8.40;99.90
33574;DHT22;20085;50.832;4.392;2022-12-07T17:21:31;8.40;99.90
33574;DHT22;20085;50.832;4.392;2022-12-07T17:24:00;8.40;99.90
33574;DHT22;20085;50.832;4.392;2022-12-07T17:26:26;8.40;99.90
33574;DHT22;20085;50.832;4.392;2022-12-07T17:28:52;8.40;99.90
33574;DHT22;20085;50.832;4.392;2022-12-07T17:31:19;8.50;99.90
33574;DHT22;20085;50.832;4.392;2022-12-07T17:33:44;8.50;99.90
33574;DHT22;20085;50.832;4.392;2022-12-07T17:36:16;8.50;99.90
33574;DHT22;20085;50.832;4.392;2022-12-07T17:38:42;8.50;99.90